createdAt,value
2018-12-20T00:02:01.502Z,100691.00
2018-12-20T00:04:30.200Z,100678.00
2018-12-20T00:06:59.385Z,100682.00
2018-12-20T00:09:27.617Z,100692.00
2018-12-20T00:11:55.819Z,100692.00
2018-12-20T00:14:29.831Z,100705.00
2018-12-20T00:16:59.806Z,100708.00
2018-12-20T00:19:27.985Z,100714.00
2018-12-20T00:21:56.244Z,100719.00
2018-12-20T00:24:24.656Z,100727.00
2018-12-20T00:26:52.927Z,100716.00
2018-12-20T00:29:21.123Z,100710.00
2018-12-20T00:31:49.279Z,100708.00
2018-12-20T00:34:17.500Z,100711.00
2018-12-20T00:36:45.790Z,100704.00
2018-12-20T00:39:14.036Z,100709.00
2018-12-20T00:41:42.289Z,100717.00
2018-12-20T00:44:10.519Z,100725.00
2018-12-20T00:46:38.726Z,100727.00
2018-12-20T00:49:07.030Z,100726.00
2018-12-20T00:51:35.377Z,100723.00
2018-12-20T00:54:03.684Z,100726.00
2018-12-20T00:56:31.976Z,100713.00
2018-12-20T00:59:00.276Z,100706.00
2018-12-20T01:01:28.715Z,100713.00
2018-12-20T01:03:57.128Z,100706.00
2018-12-20T01:06:25.595Z,100695.00
2018-12-20T01:08:53.761Z,100694.00
2018-12-20T01:11:22.097Z,100686.00
2018-12-20T01:13:50.523Z,100684.00
2018-12-20T01:16:18.924Z,100679.00
2018-12-20T01:18:47.294Z,100701.00
2018-12-20T01:21:15.738Z,100719.00
2018-12-20T01:23:44.053Z,100718.00
2018-12-20T01:26:12.295Z,100719.00
2018-12-20T01:28:40.624Z,100703.00
2018-12-20T01:31:08.983Z,100696.00
2018-12-20T01:33:37.216Z,100725.00
2018-12-20T01:36:05.694Z,100714.00
2018-12-20T01:38:33.957Z,100706.00
2018-12-20T01:41:02.305Z,100703.00
2018-12-20T01:43:30.658Z,100705.00
2018-12-20T01:45:59.068Z,100693.00
2018-12-20T01:48:27.249Z,100709.00
2018-12-20T01:50:55.411Z,100700.00
2018-12-20T01:53:23.777Z,100705.00
2018-12-20T01:55:52.173Z,100704.00
2018-12-20T01:58:20.451Z,100697.00
2018-12-20T02:00:48.721Z,100708.00
2018-12-20T02:03:16.999Z,100715.00
2018-12-20T02:05:45.219Z,100710.00
2018-12-20T02:08:13.917Z,100705.00
2018-12-20T02:10:42.284Z,100697.00
2018-12-20T02:13:10.652Z,100697.00
2018-12-20T02:15:38.936Z,100692.00
2018-12-20T02:18:07.103Z,100694.00
2018-12-20T02:20:35.373Z,100696.00
2018-12-20T02:23:03.622Z,100688.00
2018-12-20T02:25:31.973Z,100686.00
2018-12-20T02:28:00.417Z,100682.00
2018-12-20T02:30:28.763Z,100694.00
2018-12-20T02:32:56.999Z,100689.00
2018-12-20T02:35:25.465Z,100699.00
2018-12-20T02:37:53.873Z,100693.00
2018-12-20T02:40:22.249Z,100693.00
2018-12-20T02:42:50.563Z,100692.00
2018-12-20T02:45:18.902Z,100692.00
2018-12-20T02:47:47.362Z,100691.00
2018-12-20T02:50:15.690Z,100690.00
2018-12-20T02:52:43.879Z,100693.00
2018-12-20T02:55:12.210Z,100697.00
2018-12-20T02:57:40.487Z,100683.00
2018-12-20T03:08:36.508Z,100664.00
2018-12-20T03:11:04.865Z,100674.00
2018-12-20T03:13:33.100Z,100657.00
2018-12-20T03:16:01.308Z,100656.00
2018-12-20T03:18:29.594Z,100655.00
2018-12-20T03:20:58.145Z,100658.00
2018-12-20T03:23:26.690Z,100651.00
2018-12-20T03:25:55.256Z,100644.00
2018-12-20T03:28:23.597Z,100647.00
2018-12-20T03:30:51.803Z,100637.00
2018-12-20T03:33:20.009Z,100632.00
2018-12-20T03:35:48.315Z,100636.00
2018-12-20T03:38:16.485Z,100643.00
2018-12-20T03:40:44.767Z,100648.00
2018-12-20T03:43:13.117Z,100648.00
2018-12-20T03:45:41.796Z,100647.00
2018-12-20T03:48:10.108Z,100644.00
2018-12-20T03:50:38.478Z,100648.00
2018-12-20T03:53:06.682Z,100649.00
2018-12-20T03:55:35.059Z,100647.00
2018-12-20T03:58:03.717Z,100666.00
2018-12-20T04:00:32.081Z,100666.00
2018-12-20T04:03:00.500Z,100656.00
2018-12-20T04:05:28.797Z,100662.00
2018-12-20T04:07:57.092Z,100662.00
2018-12-20T04:10:25.337Z,100658.00
2018-12-20T04:12:54.105Z,100669.00
2018-12-20T04:15:22.303Z,100652.00
2018-12-20T04:17:50.596Z,100656.00
2018-12-20T04:20:19.091Z,100655.00
2018-12-20T04:22:47.443Z,100663.00
2018-12-20T04:25:15.872Z,100660.00
2018-12-20T04:27:44.252Z,100657.00
2018-12-20T04:30:12.883Z,100661.00
2018-12-20T04:32:41.135Z,100657.00
2018-12-20T04:35:09.476Z,100667.00
2018-12-20T04:37:37.704Z,100647.00
2018-12-20T04:40:06.463Z,100642.00
2018-12-20T04:42:34.741Z,100656.00
2018-12-20T04:45:03.495Z,100649.00
2018-12-20T04:47:31.924Z,100645.00
2018-12-20T04:50:00.460Z,100648.00
2018-12-20T04:52:28.827Z,100658.00
2018-12-20T04:54:57.022Z,100653.00
2018-12-20T04:57:25.320Z,100654.00
2018-12-20T04:59:53.493Z,100649.00
2018-12-20T05:02:22.047Z,100641.00
2018-12-20T05:04:50.446Z,100641.00
2018-12-20T05:09:40.865Z,100644.00
2018-12-20T05:12:09.067Z,100638.00
2018-12-20T05:14:37.344Z,100644.00
2018-12-20T05:17:05.682Z,100646.00
2018-12-20T05:19:33.960Z,100646.00
2018-12-20T05:22:02.266Z,100637.00
2018-12-20T05:24:30.605Z,100632.00
2018-12-20T05:26:58.846Z,100638.00
2018-12-20T05:29:27.271Z,100644.00
2018-12-20T05:31:55.561Z,100646.00
2018-12-20T05:34:23.920Z,100640.00
2018-12-20T05:36:52.360Z,100644.00
2018-12-20T05:39:20.770Z,100638.00
2018-12-20T05:41:49.242Z,100635.00
2018-12-20T05:44:17.792Z,100633.00
2018-12-20T05:46:46.060Z,100628.00
2018-12-20T05:55:08.611Z,100638.00
2018-12-20T05:57:37.077Z,100640.00
2018-12-20T06:00:08.559Z,100642.00
2018-12-20T06:02:36.983Z,100635.00
2018-12-20T06:05:06.428Z,100644.00
2018-12-20T06:07:34.654Z,100641.00
2018-12-20T06:10:02.928Z,100645.00
2018-12-20T06:12:31.281Z,100627.00
2018-12-20T06:14:59.528Z,100632.00
2018-12-20T06:17:27.705Z,100632.00
2018-12-20T06:19:56.117Z,100644.00
2018-12-20T06:22:24.428Z,100630.00
2018-12-20T06:24:52.701Z,100634.00
2018-12-20T06:27:20.868Z,100635.00
2018-12-20T06:29:49.065Z,100643.00
2018-12-20T06:32:17.273Z,100644.00
2018-12-20T06:34:45.475Z,100641.00
2018-12-20T06:37:13.626Z,100638.00
2018-12-20T06:39:41.792Z,100631.00
2018-12-20T06:42:09.996Z,100631.00
2018-12-20T06:44:38.192Z,100631.00
2018-12-20T06:47:06.372Z,100639.00
2018-12-20T06:49:34.589Z,100633.00
2018-12-20T06:52:02.752Z,100636.00
2018-12-20T06:54:30.975Z,100642.00
2018-12-20T06:56:59.180Z,100634.00
2018-12-20T06:59:27.357Z,100642.00
2018-12-20T07:01:55.573Z,100636.00
2018-12-20T07:04:23.808Z,100642.00
2018-12-20T07:06:51.980Z,100641.00
2018-12-20T07:15:14.450Z,100635.00
2018-12-20T07:17:42.629Z,100634.00
2018-12-20T07:20:10.949Z,100643.00
2018-12-20T07:22:39.161Z,100637.00
2018-12-20T07:25:07.505Z,100644.00
2018-12-20T07:27:36.385Z,100635.00
2018-12-20T07:30:09.648Z,100637.00
2018-12-20T07:32:37.858Z,100639.00
2018-12-20T07:35:07.293Z,100639.00
2018-12-20T07:37:35.559Z,100641.00
2018-12-20T07:40:06.243Z,100642.00
2018-12-20T07:42:34.445Z,100639.00
2018-12-20T07:45:02.701Z,100639.00
2018-12-20T07:47:31.063Z,100639.00
2018-12-20T07:49:59.233Z,100642.00
2018-12-20T07:52:27.400Z,100639.00
2018-12-20T07:54:55.611Z,100642.00
2018-12-20T07:57:24.882Z,100648.00
2018-12-20T07:59:53.271Z,100640.00
2018-12-20T08:02:21.494Z,100643.00
2018-12-20T08:04:49.665Z,100641.00
2018-12-20T08:07:17.841Z,100641.00
2018-12-20T08:09:46.065Z,100644.00
2018-12-20T08:12:14.238Z,100644.00
2018-12-20T08:14:42.396Z,100654.00
2018-12-20T08:17:10.641Z,100636.00
2018-12-20T08:19:38.816Z,100641.00
2018-12-20T08:22:07.057Z,100650.00
2018-12-20T08:24:35.228Z,100644.00
2018-12-20T08:27:03.458Z,100650.00
2018-12-20T08:29:31.634Z,100644.00
2018-12-20T08:31:59.828Z,100659.00
2018-12-20T08:34:28.069Z,100662.00
2018-12-20T08:36:56.222Z,100660.00
2018-12-20T08:45:31.903Z,100669.00
2018-12-20T08:53:55.194Z,100673.00
2018-12-20T08:56:23.388Z,100670.00
2018-12-20T08:58:51.628Z,100666.00
2018-12-20T09:01:19.819Z,100655.00
2018-12-20T09:03:48.115Z,100662.00
2018-12-20T09:06:16.781Z,100655.00
2018-12-20T09:08:44.999Z,100654.00
2018-12-20T09:11:13.248Z,100641.00
2018-12-20T09:13:41.523Z,100638.00
2018-12-20T09:16:09.779Z,100644.00
2018-12-20T09:18:37.982Z,100642.00
2018-12-20T09:21:06.346Z,100639.00
2018-12-20T09:23:34.565Z,100647.00
2018-12-20T09:26:03.388Z,100637.00
2018-12-20T09:28:31.975Z,100645.00
2018-12-20T09:31:00.187Z,100634.00
2018-12-20T09:33:28.473Z,100624.00
2018-12-20T09:35:56.720Z,100629.00
2018-12-20T09:38:24.912Z,100628.00
2018-12-20T09:40:53.694Z,100636.00
2018-12-20T09:43:22.100Z,100633.00
2018-12-20T09:45:50.518Z,100633.00
2018-12-20T09:48:18.813Z,100627.00
2018-12-20T09:50:47.310Z,100627.00
2018-12-20T09:53:15.475Z,100625.00
2018-12-20T09:55:43.639Z,100622.00
2018-12-20T09:58:11.869Z,100620.00
2018-12-20T10:00:40.193Z,100630.00
2018-12-20T10:03:08.463Z,100630.00
2018-12-20T10:05:36.727Z,100626.00
2018-12-20T10:08:06.831Z,100622.00
2018-12-20T10:10:35.114Z,100616.00
2018-12-20T10:13:03.663Z,100620.00
2018-12-20T10:15:32.154Z,100611.00
2018-12-20T10:18:00.352Z,100618.00
2018-12-20T10:20:28.829Z,100612.00
2018-12-20T10:22:57.021Z,100602.00
2018-12-20T10:25:25.338Z,100601.00
2018-12-20T10:27:53.609Z,100600.00
2018-12-20T10:30:21.873Z,100595.00
2018-12-20T10:32:50.192Z,100602.00
2018-12-20T10:35:18.499Z,100601.00
2018-12-20T10:37:46.776Z,100595.00
2018-12-20T10:40:14.962Z,100594.00
2018-12-20T10:42:43.221Z,100595.00
2018-12-20T10:45:11.388Z,100595.00
2018-12-20T10:47:39.552Z,100589.00
2018-12-20T10:50:08.806Z,100594.00
2018-12-20T10:52:37.053Z,100603.00
2018-12-20T10:55:05.427Z,100605.00
2018-12-20T10:57:33.650Z,100599.00
2018-12-20T11:00:01.981Z,100596.00
2018-12-20T11:02:35.925Z,100599.00
2018-12-20T11:05:06.544Z,100597.00
2018-12-20T11:07:40.276Z,100609.00
2018-12-20T11:13:07.190Z,100589.00
2018-12-20T11:15:37.377Z,100590.00
2018-12-20T11:18:06.285Z,100589.00
2018-12-20T11:20:34.544Z,100576.00
2018-12-20T11:23:03.535Z,100570.00
2018-12-20T11:25:31.824Z,100576.00
2018-12-20T11:28:00.062Z,100569.00
2018-12-20T11:30:28.246Z,100557.00
2018-12-20T11:32:56.533Z,100559.00
2018-12-20T11:35:24.958Z,100565.00
2018-12-20T11:37:53.166Z,100560.00
2018-12-20T11:40:21.365Z,100551.00
2018-12-20T11:42:49.638Z,100562.00
2018-12-20T11:45:18.015Z,100554.00
2018-12-20T11:47:46.399Z,100550.00
2018-12-20T11:50:14.972Z,100555.00
2018-12-20T11:52:43.176Z,100559.00
2018-12-20T11:55:11.552Z,100549.00
2018-12-20T11:57:39.743Z,100549.00
2018-12-20T12:00:10.300Z,100545.00
2018-12-20T12:02:38.608Z,100545.00
2018-12-20T12:05:06.990Z,100546.00
2018-12-20T12:07:35.538Z,100545.00
2018-12-20T12:10:05.496Z,100546.00
2018-12-20T12:12:33.860Z,100545.00
2018-12-20T12:15:02.231Z,100546.00
2018-12-20T12:17:30.417Z,100544.00
2018-12-20T12:19:58.609Z,100546.00
2018-12-20T12:22:26.833Z,100560.00
2018-12-20T12:24:55.041Z,100541.00
2018-12-20T12:27:23.414Z,100546.00
2018-12-20T12:29:51.804Z,100555.00
2018-12-20T12:32:20.080Z,100555.00
2018-12-20T12:34:48.250Z,100556.00
2018-12-20T12:37:16.503Z,100545.00
2018-12-20T12:39:44.681Z,100545.00
2018-12-20T12:42:12.959Z,100548.00
2018-12-20T12:44:41.338Z,100555.00
2018-12-20T12:47:09.523Z,100558.00
2018-12-20T12:49:37.845Z,100548.00
2018-12-20T12:52:06.037Z,100553.00
2018-12-20T12:54:34.260Z,100552.00
2018-12-20T12:57:02.525Z,100553.00
2018-12-20T12:59:30.709Z,100563.00
2018-12-20T13:01:59.162Z,100564.00
2018-12-20T13:04:27.384Z,100562.00
2018-12-20T13:06:55.751Z,100568.00
2018-12-20T13:09:24.067Z,100561.00
2018-12-20T13:11:52.291Z,100573.00
2018-12-20T13:14:20.499Z,100573.00
2018-12-20T13:16:48.815Z,100567.00
2018-12-20T13:19:17.195Z,100553.00
2018-12-20T13:21:45.466Z,100559.00
2018-12-20T13:24:13.844Z,100558.00
2018-12-20T13:26:42.141Z,100564.00
2018-12-20T13:29:10.348Z,100561.00
2018-12-20T13:31:38.608Z,100561.00
2018-12-20T13:34:06.826Z,100562.00
2018-12-20T13:36:35.542Z,100556.00
2018-12-20T13:39:06.338Z,100572.00
2018-12-20T13:41:34.596Z,100567.00
2018-12-20T13:44:03.086Z,100567.00
2018-12-20T13:46:31.500Z,100565.00
2018-12-20T13:49:00.151Z,100566.00
2018-12-20T13:51:28.363Z,100569.00
2018-12-20T13:53:57.022Z,100563.00
2018-12-20T13:56:25.245Z,100570.00
2018-12-20T13:58:53.415Z,100572.00
2018-12-20T14:01:21.682Z,100576.00
2018-12-20T14:03:49.955Z,100574.00
2018-12-20T14:06:18.316Z,100575.00
2018-12-20T14:08:46.522Z,100578.00
2018-12-20T14:11:14.996Z,100579.00
2018-12-20T14:13:43.297Z,100577.00
2018-12-20T14:16:11.595Z,100591.00
2018-12-20T14:18:39.893Z,100575.00
2018-12-20T14:21:08.088Z,100587.00
2018-12-20T14:23:36.368Z,100589.00
2018-12-20T14:26:04.744Z,100589.00
2018-12-20T14:28:32.941Z,100586.00
2018-12-20T14:31:01.366Z,100576.00
2018-12-20T14:33:29.758Z,100578.00
2018-12-20T14:35:58.052Z,100580.00
2018-12-20T14:38:26.237Z,100573.00
2018-12-20T14:40:54.608Z,100588.00
2018-12-20T14:43:22.809Z,100591.00
2018-12-20T14:45:51.030Z,100593.00
2018-12-20T14:48:24.765Z,100597.00
2018-12-20T14:50:53.112Z,100603.00
2018-12-20T14:53:21.304Z,100591.00
2018-12-20T14:55:49.526Z,100595.00
2018-12-20T14:58:17.724Z,100608.00
2018-12-20T15:00:46.123Z,100598.00
2018-12-20T15:03:14.442Z,100596.00
2018-12-20T15:05:42.685Z,100604.00
2018-12-20T15:08:10.881Z,100606.00
2018-12-20T15:10:39.193Z,100603.00
2018-12-20T15:13:07.601Z,100612.00
2018-12-20T15:15:35.801Z,100615.00
2018-12-20T15:18:04.368Z,100620.00
2018-12-20T15:20:40.233Z,100619.00
2018-12-20T15:23:02.942Z,100621.00
2018-12-20T15:25:31.140Z,100621.00
2018-12-20T15:28:00.109Z,100620.00
2018-12-20T15:30:28.318Z,100621.00
2018-12-20T15:32:58.688Z,100626.00
2018-12-20T15:35:27.458Z,100616.00
2018-12-20T15:37:55.633Z,100614.00
2018-12-20T15:40:24.044Z,100619.00
2018-12-20T15:42:52.422Z,100621.00
2018-12-20T15:45:20.720Z,100616.00
2018-12-20T15:47:48.974Z,100623.00
2018-12-20T15:50:17.367Z,100616.00
2018-12-20T15:52:45.751Z,100616.00
2018-12-20T15:55:14.017Z,100621.00
2018-12-20T15:57:42.384Z,100623.00
2018-12-20T16:00:10.828Z,100627.00
2018-12-20T16:02:39.010Z,100630.00
2018-12-20T16:05:07.389Z,100631.00
2018-12-20T16:07:35.719Z,100628.00
2018-12-20T16:10:05.884Z,100628.00
2018-12-20T16:12:34.085Z,100623.00
2018-12-20T16:15:02.463Z,100629.00
2018-12-20T16:17:30.675Z,100628.00
2018-12-20T16:19:59.091Z,100628.00
2018-12-20T16:22:27.329Z,100629.00
2018-12-20T16:24:55.530Z,100627.00
2018-12-20T16:27:23.762Z,100627.00
2018-12-20T16:29:52.114Z,100626.00
2018-12-20T16:32:20.389Z,100621.00
2018-12-20T16:34:48.839Z,100622.00
2018-12-20T16:37:17.045Z,100628.00
2018-12-20T16:39:45.244Z,100618.00
2018-12-20T16:42:13.512Z,100620.00
2018-12-20T16:44:41.785Z,100621.00
2018-12-20T16:47:10.164Z,100613.00
2018-12-20T16:49:38.480Z,100617.00
2018-12-20T16:52:06.714Z,100607.00
2018-12-20T16:54:35.071Z,100621.00
2018-12-20T16:57:03.346Z,100614.00
2018-12-20T16:59:31.549Z,100624.00
2018-12-20T17:01:59.967Z,100629.00
2018-12-20T17:04:28.181Z,100621.00
2018-12-20T17:06:56.461Z,100610.00
2018-12-20T17:09:24.700Z,100597.00
2018-12-20T17:11:53.008Z,100609.00
2018-12-20T17:14:21.294Z,100604.00
2018-12-20T17:16:49.615Z,100605.00
2018-12-20T17:19:22.034Z,100595.00
2018-12-20T17:21:48.030Z,100606.00
2018-12-20T17:24:16.423Z,100609.00
2018-12-20T17:29:53.787Z,100601.00
2018-12-20T17:32:23.365Z,100611.00
2018-12-20T17:34:51.744Z,100607.00
2018-12-20T17:37:19.951Z,100614.00
2018-12-20T17:39:49.498Z,100621.00
2018-12-20T17:42:17.797Z,100611.00
2018-12-20T17:44:45.999Z,100619.00
2018-12-20T17:47:14.213Z,100623.00
2018-12-20T17:49:42.428Z,100611.00
2018-12-20T17:52:10.797Z,100616.00
2018-12-20T17:54:39.140Z,100615.00
2018-12-20T17:57:07.350Z,100609.00
2018-12-20T17:59:36.185Z,100620.00
2018-12-20T18:02:04.615Z,100615.00
2018-12-20T18:04:32.840Z,100607.00
2018-12-20T18:07:01.043Z,100613.00
2018-12-20T18:09:29.260Z,100610.00
2018-12-20T18:11:57.492Z,100601.00
2018-12-20T18:14:26.376Z,100597.00
2018-12-20T18:16:55.185Z,100599.00
2018-12-20T18:19:23.417Z,100603.00
2018-12-20T18:21:51.708Z,100603.00
2018-12-20T18:24:20.016Z,100606.00
2018-12-20T18:26:48.217Z,100603.00
2018-12-20T18:29:16.441Z,100606.00
2018-12-20T18:31:44.906Z,100605.00
2018-12-20T18:34:13.394Z,100616.00
2018-12-20T18:36:41.730Z,100609.00
2018-12-20T18:39:09.914Z,100609.00
2018-12-20T18:41:38.353Z,100615.00
2018-12-20T18:44:06.642Z,100613.00
2018-12-20T18:46:34.838Z,100607.00
2018-12-20T18:49:03.090Z,100610.00
2018-12-20T18:51:31.329Z,100603.00
2018-12-20T18:53:59.572Z,100604.00
2018-12-20T18:56:27.776Z,100594.00
2018-12-20T18:58:56.039Z,100596.00
2018-12-20T19:01:24.302Z,100594.00
2018-12-20T19:03:52.510Z,100601.00
2018-12-20T19:06:20.779Z,100607.00
2018-12-20T19:08:48.996Z,100598.00
2018-12-20T19:11:17.168Z,100594.00
2018-12-20T19:13:47.090Z,100603.00
2018-12-20T19:16:15.376Z,100611.00
2018-12-20T19:18:43.645Z,100611.00
2018-12-20T19:21:11.984Z,100610.00
2018-12-20T19:23:40.239Z,100611.00
2018-12-20T19:26:08.553Z,100609.00
2018-12-20T19:28:36.915Z,100604.00
2018-12-20T19:31:05.220Z,100612.00
2018-12-20T19:33:33.591Z,100609.00
2018-12-20T19:36:01.793Z,100604.00
2018-12-20T19:38:30.022Z,100604.00
2018-12-20T19:40:58.303Z,100606.00
2018-12-20T19:43:26.570Z,100611.00
2018-12-20T19:45:54.763Z,100604.00
2018-12-20T19:48:23.041Z,100605.00
2018-12-20T19:50:51.254Z,100614.00
2018-12-20T19:53:19.596Z,100605.00
2018-12-20T19:55:47.835Z,100616.00
2018-12-20T19:58:16.220Z,100608.00
2018-12-20T20:00:44.491Z,100611.00
2018-12-20T20:03:12.846Z,100607.00
2018-12-20T20:05:41.092Z,100612.00
2018-12-20T20:08:10.030Z,100609.00
2018-12-20T20:10:38.238Z,100616.00
2018-12-20T20:13:07.318Z,100611.00
2018-12-20T20:15:35.527Z,100611.00
2018-12-20T20:18:03.770Z,100613.00
2018-12-20T20:20:32.132Z,100613.00
2018-12-20T20:23:00.309Z,100613.00
2018-12-20T20:25:28.683Z,100612.00
2018-12-20T20:27:56.879Z,100613.00
2018-12-20T20:30:25.132Z,100626.00
2018-12-20T20:32:53.407Z,100610.00
2018-12-20T20:35:21.619Z,100608.00
2018-12-20T20:37:49.921Z,100610.00
2018-12-20T20:40:18.233Z,100611.00
2018-12-20T20:42:46.508Z,100607.00
2018-12-20T20:45:14.709Z,100606.00
2018-12-20T20:47:42.940Z,100613.00
2018-12-20T20:50:11.126Z,100613.00
2018-12-20T20:52:39.311Z,100606.00
2018-12-20T20:55:08.150Z,100605.00
2018-12-20T20:57:36.464Z,100609.00
2018-12-20T21:00:09.285Z,100606.00
2018-12-20T21:02:37.674Z,100603.00
2018-12-20T21:05:07.468Z,100606.00
2018-12-20T21:07:35.710Z,100608.00
2018-12-20T21:10:06.804Z,100614.00
2018-12-20T21:12:35.267Z,100604.00
2018-12-20T21:15:03.604Z,100610.00
2018-12-20T21:17:31.908Z,100611.00
2018-12-20T21:20:00.108Z,100615.00
2018-12-20T21:22:28.358Z,100603.00
2018-12-20T21:24:56.597Z,100607.00
2018-12-20T21:27:24.764Z,100613.00
2018-12-20T21:29:53.017Z,100617.00
2018-12-20T21:32:21.231Z,100613.00
2018-12-20T21:34:49.448Z,100606.00
2018-12-20T21:37:17.630Z,100617.00
2018-12-20T21:39:45.833Z,100617.00
2018-12-20T21:42:14.049Z,100613.00
2018-12-20T21:44:42.256Z,100615.00
2018-12-20T21:47:10.449Z,100620.00
2018-12-20T21:49:38.655Z,100618.00
2018-12-20T21:52:06.823Z,100623.00
2018-12-20T21:54:35.054Z,100621.00
2018-12-20T21:57:03.224Z,100625.00
2018-12-20T21:59:31.397Z,100624.00
2018-12-20T22:01:59.638Z,100624.00
2018-12-20T22:04:27.808Z,100622.00
2018-12-20T22:06:56.101Z,100621.00
2018-12-20T22:09:24.300Z,100619.00
2018-12-20T22:11:52.475Z,100619.00
2018-12-20T22:14:20.649Z,100623.00
2018-12-20T22:16:48.860Z,100624.00
2018-12-20T22:19:17.034Z,100632.00
2018-12-20T22:21:45.204Z,100618.00
2018-12-20T22:24:13.413Z,100622.00
2018-12-20T22:26:41.584Z,100610.00
2018-12-20T22:29:09.758Z,100612.00
2018-12-20T22:31:37.992Z,100621.00
2018-12-20T22:34:06.175Z,100623.00
2018-12-20T22:36:34.348Z,100615.00
2018-12-20T22:39:02.575Z,100618.00
2018-12-20T22:41:30.737Z,100615.00
2018-12-20T22:43:58.951Z,100615.00
2018-12-20T22:46:27.192Z,100609.00
2018-12-20T22:48:55.408Z,100608.00
2018-12-20T22:51:23.604Z,100609.00
2018-12-20T22:53:51.840Z,100603.00
2018-12-20T22:56:20.007Z,100609.00
2018-12-20T22:58:48.177Z,100608.00
2018-12-20T23:01:16.490Z,100610.00
2018-12-20T23:03:44.696Z,100607.00
2018-12-20T23:06:12.864Z,100603.00
2018-12-20T23:08:41.074Z,100601.00
2018-12-20T23:11:09.253Z,100609.00
2018-12-20T23:13:37.424Z,100604.00
2018-12-20T23:16:05.847Z,100594.00
2018-12-20T23:18:34.027Z,100601.00
2018-12-20T23:21:05.058Z,100595.00
2018-12-20T23:23:32.485Z,100602.00
2018-12-20T23:26:00.696Z,100592.00
2018-12-20T23:28:28.868Z,100593.00
2018-12-20T23:30:57.114Z,100589.00
2018-12-20T23:33:25.294Z,100589.00
2018-12-20T23:35:53.452Z,100596.00
2018-12-20T23:38:21.655Z,100602.00
2018-12-20T23:40:49.864Z,100589.00
2018-12-20T23:43:18.135Z,100592.00
2018-12-20T23:45:46.885Z,100590.00
2018-12-20T23:48:15.092Z,100599.00
2018-12-20T23:50:43.268Z,100591.00
2018-12-20T23:53:11.514Z,100587.00
2018-12-20T23:55:39.690Z,100583.00
2018-12-20T23:58:07.899Z,100587.00
